Time;durP1;ratioP1;P1;durP2;ratioP2;P2;SDS_P1;SDS_P2;PMS_P1;PMS_P2;Temp;Humidity;BMP_temperature;BMP_pressure;BME280_temperature;BME280_humidity;BME280_pressure;Samples;Min_cycle;Max_cycle;Signal;HPM_P1;HPM_P2
2022/02/22 00:01:48;;;;;;;19.50;3.67;;;;;;;;;;5037387;28;20643;-67
2022/02/22 00:04:16;;;;;;;15.73;3.13;;;;;;;;;;5037014;28;20291;-67
2022/02/22 00:06:44;;;;;;;15.17;2.80;;;;;;;;;;5037169;28;20255;-67
2022/02/22 00:09:13;;;;;;;12.53;3.53;;;;;;;;;;5037116;28;20290;-67
2022/02/22 00:11:42;;;;;;;16.60;4.10;;;;;;;;;;5036824;28;20235;-67
2022/02/22 00:14:11;;;;;;;12.93;3.13;;;;;;;;;;5036995;28;20677;-67
2022/02/22 00:16:39;;;;;;;15.63;4.53;;;;;;;;;;5036944;28;20307;-67
2022/02/22 00:19:07;;;;;;;17.93;3.60;;;;;;;;;;5036824;28;20266;-67
2022/02/22 00:21:35;;;;;;;12.07;3.03;;;;;;;;;;5037424;28;20298;-67
2022/02/22 00:24:03;;;;;;;14.20;3.80;;;;;;;;;;5039504;28;20686;-67
2022/02/22 00:26:32;;;;;;;12.73;3.80;;;;;;;;;;5040899;28;20263;-67
2022/02/22 00:29:00;;;;;;;16.60;3.23;;;;;;;;;;5040700;28;20742;-67
2022/02/22 00:31:28;;;;;;;19.27;3.93;;;;;;;;;;5040747;28;20247;-67
2022/02/22 00:33:56;;;;;;;16.87;3.77;;;;;;;;;;5040376;28;20310;-67
2022/02/22 00:36:24;;;;;;;15.90;3.83;;;;;;;;;;5040638;28;20287;-67
2022/02/22 00:38:52;;;;;;;11.13;3.23;;;;;;;;;;5040526;28;20242;-67
2022/02/22 00:41:20;;;;;;;13.60;3.50;;;;;;;;;;5040754;28;20295;-67
2022/02/22 00:43:51;;;;;;;16.10;3.90;;;;;;;;;;5040649;28;20211;-67
2022/02/22 00:46:19;;;;;;;19.97;3.77;;;;;;;;;;5040416;28;20255;-67
2022/02/22 00:48:47;;;;;;;14.67;3.37;;;;;;;;;;5040091;28;20738;-67
2022/02/22 00:51:15;;;;;;;20.63;3.73;;;;;;;;;;5040340;28;20243;-68
2022/02/22 00:53:43;;;;;;;16.57;3.67;;;;;;;;;;5038126;28;20311;-67
2022/02/22 00:56:11;;;;;;;11.67;3.23;;;;;;;;;;5020442;28;20260;-67
2022/02/22 00:58:39;;;;;;;16.00;4.77;;;;;;;;;;5028370;28;20706;-66
2022/02/22 01:01:11;;;;;;;20.87;4.17;;;;;;;;;;5031707;28;20227;-66
2022/02/22 01:03:39;;;;;;;22.83;4.20;;;;;;;;;;5032556;28;20635;-66
2022/02/22 01:06:07;;;;;;;19.80;4.17;;;;;;;;;;5033766;28;20262;-66
2022/02/22 01:08:35;;;;;;;23.40;3.87;;;;;;;;;;5035483;28;20291;-66
2022/02/22 01:11:03;;;;;;;14.20;4.00;;;;;;;;;;5029145;28;20666;-67
2022/02/22 01:13:31;;;;;;;19.47;3.77;;;;;;;;;;5018968;28;20762;-67
2022/02/22 01:15:59;;;;;;;11.73;3.23;;;;;;;;;;5022942;28;20262;-66
2022/02/22 01:18:29;;;;;;;14.43;3.27;;;;;;;;;;5039261;28;20710;-67
2022/02/22 01:20:57;;;;;;;19.80;4.67;;;;;;;;;;5039752;28;20291;-67
2022/02/22 01:23:25;;;;;;;22.57;4.60;;;;;;;;;;5039415;28;20245;-67
2022/02/22 01:25:56;;;;;;;16.97;3.77;;;;;;;;;;5039435;28;20259;-67
2022/02/22 01:28:24;;;;;;;15.57;3.33;;;;;;;;;;5039830;28;20207;-67
2022/02/22 01:30:52;;;;;;;16.47;4.10;;;;;;;;;;5039400;28;20238;-67
2022/02/22 01:33:20;;;;;;;16.47;4.30;;;;;;;;;;5039382;28;20310;-67
2022/02/22 01:35:50;;;;;;;19.13;4.10;;;;;;;;;;5038007;28;20227;-67
2022/02/22 01:38:18;;;;;;;25.40;4.57;;;;;;;;;;5034555;28;20255;-67
2022/02/22 01:40:46;;;;;;;22.43;3.90;;;;;;;;;;5019857;28;20239;-67
2022/02/22 01:43:14;;;;;;;17.80;3.50;;;;;;;;;;5019805;28;20272;-67
2022/02/22 01:45:42;;;;;;;16.63;4.27;;;;;;;;;;5019545;28;20687;-67
2022/02/22 01:48:10;;;;;;;15.43;3.83;;;;;;;;;;5019365;28;20295;-67
2022/02/22 01:50:38;;;;;;;19.37;4.83;;;;;;;;;;5019553;28;20236;-67
2022/02/22 01:53:10;;;;;;;20.43;4.13;;;;;;;;;;5022300;28;20302;-67
2022/02/22 01:55:39;;;;;;;16.37;4.10;;;;;;;;;;5039236;28;20224;-67
2022/02/22 01:58:08;;;;;;;17.07;3.80;;;;;;;;;;5039592;28;20294;-67
2022/02/22 02:00:36;;;;;;;13.80;3.50;;;;;;;;;;5039033;28;20291;-67
2022/02/22 02:03:04;;;;;;;15.40;3.70;;;;;;;;;;5039137;28;20203;-67
2022/02/22 02:05:32;;;;;;;21.20;4.97;;;;;;;;;;5039137;28;20250;-67
2022/02/22 02:08:00;;;;;;;18.23;4.77;;;;;;;;;;5039038;28;20234;-67
2022/02/22 02:10:29;;;;;;;15.13;4.40;;;;;;;;;;5038884;28;20335;-67
2022/02/22 02:12:57;;;;;;;20.53;3.93;;;;;;;;;;5038830;28;20562;-67
2022/02/22 02:15:25;;;;;;;17.40;4.50;;;;;;;;;;5038851;28;20306;-67
2022/02/22 02:17:53;;;;;;;18.90;4.60;;;;;;;;;;5037274;28;20291;-67
2022/02/22 02:20:21;;;;;;;19.07;4.23;;;;;;;;;;5038662;28;20212;-66
2022/02/22 02:22:51;;;;;;;25.10;4.73;;;;;;;;;;5038405;28;20386;-66
2022/02/22 02:25:19;;;;;;;22.80;4.43;;;;;;;;;;5038320;28;20656;-66
2022/02/22 02:27:47;;;;;;;16.17;3.63;;;;;;;;;;5038626;28;20204;-66
2022/02/22 02:30:16;;;;;;;15.73;4.03;;;;;;;;;;5038431;28;20230;-67
2022/02/22 02:32:44;;;;;;;16.93;4.10;;;;;;;;;;5038327;28;20235;-65
2022/02/22 02:35:12;;;;;;;16.13;4.40;;;;;;;;;;5038301;28;20265;-67
2022/02/22 02:37:41;;;;;;;14.00;3.60;;;;;;;;;;5038454;28;20291;-66
2022/02/22 02:40:30;;;;;;;14.57;3.93;;;;;;;;;;5018609;28;20214;-66
2022/02/22 02:42:58;;;;;;;14.93;3.43;;;;;;;;;;5018411;28;20291;-65
2022/02/22 02:45:26;;;;;;;14.70;4.10;;;;;;;;;;5018292;28;20319;-67
2022/02/22 02:47:54;;;;;;;18.10;4.30;;;;;;;;;;5018016;28;20258;-67
2022/02/22 02:50:25;;;;;;;22.87;3.83;;;;;;;;;;5018430;28;20219;-66
2022/02/22 02:52:53;;;;;;;19.43;4.47;;;;;;;;;;5018924;28;20258;-66
2022/02/22 02:55:21;;;;;;;24.03;4.60;;;;;;;;;;5037903;28;20698;-66
2022/02/22 02:57:50;;;;;;;19.53;3.93;;;;;;;;;;5037904;28;20647;-66
2022/02/22 03:00:18;;;;;;;21.13;4.80;;;;;;;;;;5037944;28;20642;-66
2022/02/22 03:02:46;;;;;;;19.37;5.07;;;;;;;;;;5037666;28;20334;-66
2022/02/22 03:05:14;;;;;;;17.33;3.90;;;;;;;;;;5038014;28;20270;-67
2022/02/22 03:07:42;;;;;;;16.60;3.57;;;;;;;;;;5038062;28;20246;-66
2022/02/22 03:10:10;;;;;;;19.60;4.40;;;;;;;;;;5037792;28;20243;-66
2022/02/22 03:12:38;;;;;;;20.87;3.90;;;;;;;;;;5037834;28;20646;-66
2022/02/22 03:15:09;;;;;;;20.00;3.87;;;;;;;;;;5037846;28;20263;-66
2022/02/22 03:17:37;;;;;;;31.57;5.13;;;;;;;;;;5037400;28;20706;-67
2022/02/22 03:20:06;;;;;;;18.57;4.30;;;;;;;;;;5037803;28;20241;-67
2022/02/22 03:22:34;;;;;;;18.17;3.93;;;;;;;;;;5037336;28;20215;-67
2022/02/22 03:25:02;;;;;;;20.60;4.23;;;;;;;;;;5037909;28;20286;-67
2022/02/22 03:27:30;;;;;;;18.47;4.53;;;;;;;;;;5037723;28;20290;-67
2022/02/22 03:29:58;;;;;;;17.53;4.00;;;;;;;;;;5037885;28;20238;-66
2022/02/22 03:32:27;;;;;;;16.17;3.90;;;;;;;;;;5037427;28;20271;-67
2022/02/22 03:34:55;;;;;;;18.73;3.63;;;;;;;;;;5037666;28;20262;-66
2022/02/22 03:37:23;;;;;;;21.83;4.23;;;;;;;;;;5037149;28;20231;-65
2022/02/22 03:39:51;;;;;;;20.00;5.07;;;;;;;;;;5026738;28;20243;-66
2022/02/22 03:42:19;;;;;;;19.07;4.00;;;;;;;;;;5017377;28;20219;-66
2022/02/22 03:44:47;;;;;;;14.93;3.83;;;;;;;;;;5017924;28;20235;-65
2022/02/22 03:47:15;;;;;;;14.93;3.73;;;;;;;;;;5035681;28;20267;-66
2022/02/22 03:49:44;;;;;;;16.97;4.13;;;;;;;;;;5025048;28;20208;-66
2022/02/22 03:52:12;;;;;;;23.13;4.50;;;;;;;;;;5020181;28;20239;-67
2022/02/22 03:54:41;;;;;;;17.20;4.17;;;;;;;;;;5037367;28;20294;-67
2022/02/22 03:57:09;;;;;;;21.47;3.73;;;;;;;;;;5037196;28;20311;-66
2022/02/22 03:59:37;;;;;;;18.33;4.00;;;;;;;;;;5040935;28;20234;-66
2022/02/22 04:02:05;;;;;;;18.43;4.53;;;;;;;;;;5041039;28;20752;-66
2022/02/22 04:04:33;;;;;;;14.77;4.70;;;;;;;;;;5041605;28;20207;-67
2022/02/22 04:07:03;;;;;;;20.63;4.03;;;;;;;;;;5041345;28;20314;-68
2022/02/22 04:09:31;;;;;;;21.63;5.50;;;;;;;;;;5041369;28;20301;-67
2022/02/22 04:11:59;;;;;;;15.90;4.10;;;;;;;;;;5040897;28;20239;-67
2022/02/22 04:14:27;;;;;;;14.37;3.57;;;;;;;;;;5040999;28;20762;-66
2022/02/22 04:16:55;;;;;;;15.57;3.83;;;;;;;;;;5040499;28;20306;-67
2022/02/22 04:19:24;;;;;;;20.80;5.10;;;;;;;;;;5041213;28;20286;-68
2022/02/22 04:21:52;;;;;;;22.27;4.93;;;;;;;;;;5041010;28;20235;-67
2022/02/22 04:24:21;;;;;;;19.97;5.90;;;;;;;;;;5040984;28;20235;-67
2022/02/22 04:26:49;;;;;;;21.10;4.07;;;;;;;;;;5041150;28;20231;-66
2022/02/22 04:29:17;;;;;;;17.93;3.57;;;;;;;;;;5040759;28;20277;-67
2022/02/22 04:31:45;;;;;;;18.53;4.03;;;;;;;;;;5040773;28;20290;-66
2022/02/22 04:34:13;;;;;;;23.53;4.67;;;;;;;;;;5040575;28;20290;-66
2022/02/22 04:36:41;;;;;;;15.67;4.17;;;;;;;;;;5040770;28;20251;-66
2022/02/22 04:39:10;;;;;;;18.47;3.80;;;;;;;;;;5040707;28;20299;-67
2022/02/22 04:41:40;;;;;;;18.37;4.30;;;;;;;;;;5040716;28;20271;-66
2022/02/22 04:44:08;;;;;;;17.33;4.37;;;;;;;;;;5040576;28;20250;-67
2022/02/22 04:46:36;;;;;;;15.97;3.70;;;;;;;;;;5040295;28;20242;-67
2022/02/22 04:49:08;;;;;;;22.30;4.67;;;;;;;;;;5040355;28;20246;-67
2022/02/22 04:51:36;;;;;;;15.90;3.83;;;;;;;;;;5040670;28;20246;-67
2022/02/22 04:54:05;;;;;;;24.73;4.47;;;;;;;;;;5035807;28;20288;-67
2022/02/22 04:56:33;;;;;;;26.17;4.90;;;;;;;;;;5020597;28;20314;-67
2022/02/22 04:59:03;;;;;;;19.13;3.47;;;;;;;;;;5020540;28;20287;-67
2022/02/22 05:01:31;;;;;;;23.50;4.33;;;;;;;;;;5020690;28;20368;-67
2022/02/22 05:03:59;;;;;;;21.50;5.30;;;;;;;;;;5020454;28;20208;-67
2022/02/22 05:06:27;;;;;;;17.87;3.80;;;;;;;;;;5020462;28;20256;-67
2022/02/22 05:08:55;;;;;;;21.80;4.33;;;;;;;;;;5027285;28;20290;-67
2022/02/22 05:11:23;;;;;;;19.53;3.87;;;;;;;;;;5039709;28;20670;-67
2022/02/22 05:13:51;;;;;;;22.43;4.47;;;;;;;;;;5039883;28;20246;-67
2022/02/22 05:16:24;;;;;;;23.47;4.60;;;;;;;;;;5039686;28;20590;-67
2022/02/22 05:18:52;;;;;;;14.90;3.40;;;;;;;;;;5039927;28;20286;-65
2022/02/22 05:21:20;;;;;;;25.57;5.13;;;;;;;;;;5039923;28;20239;-69
2022/02/22 05:23:48;;;;;;;24.77;4.13;;;;;;;;;;5039988;28;20203;-65
2022/02/22 05:26:16;;;;;;;17.07;5.33;;;;;;;;;;5039624;28;20311;-66
2022/02/22 05:28:44;;;;;;;19.93;4.77;;;;;;;;;;5029763;28;20200;-67
2022/02/22 05:31:13;;;;;;;20.70;4.93;;;;;;;;;;5029316;28;20267;-67
2022/02/22 05:33:42;;;;;;;17.47;4.40;;;;;;;;;;5030673;28;20231;-66
2022/02/22 05:36:10;;;;;;;16.33;4.40;;;;;;;;;;5030713;28;20230;-75
2022/02/22 05:38:39;;;;;;;26.53;5.23;;;;;;;;;;5030752;28;20639;-68
2022/02/22 05:41:10;;;;;;;26.37;4.20;;;;;;;;;;5027205;28;20208;-67
2022/02/22 05:43:38;;;;;;;18.60;5.10;;;;;;;;;;5039808;28;20234;-67
2022/02/22 05:46:06;;;;;;;20.60;5.47;;;;;;;;;;5039294;28;20262;-66
2022/02/22 05:48:34;;;;;;;21.07;4.43;;;;;;;;;;5036237;28;20231;-65
2022/02/22 05:51:03;;;;;;;23.17;4.70;;;;;;;;;;5034718;28;20227;-65
2022/02/22 05:53:33;;;;;;;18.17;4.83;;;;;;;;;;5038828;28;20207;-65
2022/02/22 05:56:01;;;;;;;25.40;4.53;;;;;;;;;;5037986;28;20302;-66
2022/02/22 05:58:29;;;;;;;19.17;5.17;;;;;;;;;;5037716;28;20293;-66
2022/02/22 06:00:57;;;;;;;30.53;9.47;;;;;;;;;;5035791;28;20235;-65
2022/02/22 06:03:25;;;;;;;22.23;4.67;;;;;;;;;;5036852;28;20195;-65
2022/02/22 06:05:53;;;;;;;15.73;3.77;;;;;;;;;;5033395;28;20303;-66
2022/02/22 06:08:23;;;;;;;16.63;3.37;;;;;;;;;;5038572;28;20235;-66
2022/02/22 06:10:51;;;;;;;24.63;6.03;;;;;;;;;;5036898;28;20278;-64
2022/02/22 06:13:19;;;;;;;19.77;4.93;;;;;;;;;;5037557;28;20207;-64
2022/02/22 06:15:47;;;;;;;14.03;6.07;;;;;;;;;;5036090;28;20707;-62
2022/02/22 06:18:16;;;;;;;17.87;4.67;;;;;;;;;;5038165;28;20691;-64
2022/02/22 06:20:44;;;;;;;18.30;6.13;;;;;;;;;;5037901;28;20211;-64
2022/02/22 06:23:12;;;;;;;17.30;4.93;;;;;;;;;;5038692;28;20208;-64
2022/02/22 06:25:43;;;;;;;20.13;6.23;;;;;;;;;;5038233;28;20278;-63
2022/02/22 06:28:12;;;;;;;18.53;4.83;;;;;;;;;;5038070;28;20282;-66
2022/02/22 06:30:40;;;;;;;17.27;3.63;;;;;;;;;;5034965;28;20746;-66
2022/02/22 06:33:08;;;;;;;17.17;3.70;;;;;;;;;;5025573;28;20633;-66
2022/02/22 06:35:36;;;;;;;21.10;4.30;;;;;;;;;;5020654;28;20710;-66
2022/02/22 06:38:04;;;;;;;18.53;4.37;;;;;;;;;;5031418;28;20211;-64
2022/02/22 06:40:32;;;;;;;22.67;4.67;;;;;;;;;;5037813;28;20254;-66
2022/02/22 06:43:02;;;;;;;18.20;3.93;;;;;;;;;;5038154;28;20560;-67
2022/02/22 06:45:30;;;;;;;23.00;3.73;;;;;;;;;;5037957;28;20267;-66
2022/02/22 06:47:58;;;;;;;15.67;3.73;;;;;;;;;;5037826;28;20246;-66
2022/02/22 06:50:29;;;;;;;15.13;4.07;;;;;;;;;;5038279;28;20215;-65
2022/02/22 06:52:57;;;;;;;15.23;4.30;;;;;;;;;;5035520;28;20667;-66
2022/02/22 06:55:25;;;;;;;18.07;3.27;;;;;;;;;;5017969;28;20271;-66
2022/02/22 06:57:55;;;;;;;18.87;3.80;;;;;;;;;;5018020;28;21279;-66
2022/02/22 07:00:23;;;;;;;19.30;3.60;;;;;;;;;;5018071;28;20243;-66
2022/02/22 07:02:51;;;;;;;22.93;7.57;;;;;;;;;;5018567;28;20236;-66
2022/02/22 07:05:20;;;;;;;20.17;4.67;;;;;;;;;;5037872;28;20269;-66
2022/02/22 07:07:54;;;;;;;12.53;3.97;;;;;;;;;;5037740;28;20218;-67
2022/02/22 07:10:22;;;;;;;22.63;4.93;;;;;;;;;;5037929;28;20274;-67
2022/02/22 07:12:50;;;;;;;16.93;4.13;;;;;;;;;;5038006;28;20212;-67
2022/02/22 07:15:19;;;;;;;19.13;4.10;;;;;;;;;;5037636;28;20255;-67
2022/02/22 07:17:48;;;;;;;18.33;4.47;;;;;;;;;;5037376;28;20262;-67
2022/02/22 07:20:16;;;;;;;18.57;4.40;;;;;;;;;;5037687;28;20243;-67
2022/02/22 07:22:45;;;;;;;16.50;3.63;;;;;;;;;;5037678;28;20212;-66
2022/02/22 07:25:14;;;;;;;21.43;4.47;;;;;;;;;;5037761;28;20267;-68
2022/02/22 07:27:44;;;;;;;13.97;4.13;;;;;;;;;;5037696;28;20242;-67
2022/02/22 07:30:13;;;;;;;17.43;4.57;;;;;;;;;;5037437;28;20214;-66
2022/02/22 07:32:43;;;;;;;24.07;4.77;;;;;;;;;;5036238;28;20734;-66
2022/02/22 07:35:12;;;;;;;20.27;3.63;;;;;;;;;;5037085;28;20645;-66
2022/02/22 07:37:43;;;;;;;19.37;4.43;;;;;;;;;;5036250;28;20215;-66
2022/02/22 07:40:12;;;;;;;20.03;4.73;;;;;;;;;;5034885;28;20208;-70
2022/02/22 07:42:43;;;;;;;19.00;4.47;;;;;;;;;;5036768;28;20282;-66
2022/02/22 07:45:12;;;;;;;26.07;5.10;;;;;;;;;;5035258;28;20203;-67
2022/02/22 07:47:40;;;;;;;18.20;4.23;;;;;;;;;;5035434;28;20234;-66
2022/02/22 07:50:10;;;;;;;16.37;4.43;;;;;;;;;;5021474;28;20643;-66
2022/02/22 07:52:38;;;;;;;17.37;4.70;;;;;;;;;;5023785;28;20226;-69
2022/02/22 07:55:06;;;;;;;16.67;4.07;;;;;;;;;;5037429;28;20235;-68
2022/02/22 07:57:38;;;;;;;20.03;4.50;;;;;;;;;;5037401;28;20224;-68
2022/02/22 08:00:08;;;;;;;20.73;4.20;;;;;;;;;;5035249;28;20200;-65
2022/02/22 08:02:36;;;;;;;18.53;5.23;;;;;;;;;;5033059;28;20211;-66
2022/02/22 08:05:05;;;;;;;17.13;4.63;;;;;;;;;;5036220;28;20230;-66
2022/02/22 08:07:35;;;;;;;16.87;4.30;;;;;;;;;;5035801;28;20234;-66
2022/02/22 08:10:04;;;;;;;19.50;5.20;;;;;;;;;;5031090;28;20314;-65
2022/02/22 08:12:32;;;;;;;19.13;4.10;;;;;;;;;;5034432;28;20226;-65
2022/02/22 08:15:00;;;;;;;19.30;4.57;;;;;;;;;;5033578;28;20250;-64
2022/02/22 08:17:28;;;;;;;21.03;4.30;;;;;;;;;;5035988;28;20215;-66
2022/02/22 08:19:56;;;;;;;21.17;4.47;;;;;;;;;;5034490;28;20618;-65
2022/02/22 08:22:25;;;;;;;23.07;4.10;;;;;;;;;;5035121;28;20263;-65
2022/02/22 08:24:55;;;;;;;19.43;4.00;;;;;;;;;;5032425;28;20208;-66
2022/02/22 08:27:23;;;;;;;17.80;4.00;;;;;;;;;;5031857;28;20226;-67
2022/02/22 08:29:51;;;;;;;24.00;4.40;;;;;;;;;;5036130;28;20211;-66
2022/02/22 08:32:19;;;;;;;20.50;4.83;;;;;;;;;;5034984;28;20204;-65
2022/02/22 08:34:47;;;;;;;18.73;3.80;;;;;;;;;;5032888;28;20261;-67
2022/02/22 08:37:17;;;;;;;14.67;4.00;;;;;;;;;;5036580;28;20235;-65
2022/02/22 08:39:46;;;;;;;19.50;4.33;;;;;;;;;;5036492;28;20210;-66
2022/02/22 08:42:15;;;;;;;18.57;4.90;;;;;;;;;;5035167;28;20291;-66
2022/02/22 08:44:43;;;;;;;17.13;4.50;;;;;;;;;;5036466;28;20207;-67
2022/02/22 08:47:12;;;;;;;12.23;3.60;;;;;;;;;;5036391;28;20211;-67
2022/02/22 08:49:41;;;;;;;20.17;4.63;;;;;;;;;;5037724;28;20282;-66
2022/02/22 08:52:09;;;;;;;20.43;4.10;;;;;;;;;;5039752;28;20651;-67
2022/02/22 08:54:48;;;;;;;18.93;4.20;;;;;;;;;;5037290;28;20207;-66
2022/02/22 08:57:19;;;;;;;20.20;4.10;;;;;;;;;;5036214;28;20356;-66
2022/02/22 08:59:47;;;;;;;19.00;4.40;;;;;;;;;;5037575;28;20291;-67
2022/02/22 09:02:15;;;;;;;14.50;3.70;;;;;;;;;;5039714;28;20207;-64
2022/02/22 09:04:43;;;;;;;13.97;4.03;;;;;;;;;;5037377;28;20199;-64
2022/02/22 09:07:11;;;;;;;15.53;3.67;;;;;;;;;;5038056;28;20220;-64
2022/02/22 09:09:39;;;;;;;16.27;3.97;;;;;;;;;;5032825;28;20208;-64
2022/02/22 09:12:08;;;;;;;17.33;4.90;;;;;;;;;;5039684;28;20239;-64
2022/02/22 09:14:38;;;;;;;18.37;4.17;;;;;;;;;;5039506;28;20207;-64
2022/02/22 09:17:06;;;;;;;15.93;3.93;;;;;;;;;;5039547;28;20224;-64
2022/02/22 09:19:35;;;;;;;16.70;3.97;;;;;;;;;;5039621;28;20214;-65
2022/02/22 09:22:03;;;;;;;16.20;4.03;;;;;;;;;;5039613;28;20212;-66
2022/02/22 09:24:31;;;;;;;15.67;3.77;;;;;;;;;;5039329;28;20212;-64
2022/02/22 09:26:59;;;;;;;12.43;3.20;;;;;;;;;;5039610;28;20254;-64
2022/02/22 09:29:28;;;;;;;20.53;4.00;;;;;;;;;;5025486;28;20236;-64
2022/02/22 09:31:57;;;;;;;15.27;3.63;;;;;;;;;;5019649;28;20204;-64
2022/02/22 09:34:25;;;;;;;16.90;3.53;;;;;;;;;;5019546;28;20212;-64
2022/02/22 09:36:54;;;;;;;13.20;3.80;;;;;;;;;;5032311;28;20230;-64
2022/02/22 09:39:22;;;;;;;24.60;4.03;;;;;;;;;;5024174;28;20291;-64
2022/02/22 09:41:50;;;;;;;16.27;3.97;;;;;;;;;;5019284;28;20575;-64
2022/02/22 09:44:18;;;;;;;21.63;3.80;;;;;;;;;;5018998;28;20212;-65
2022/02/22 09:46:47;;;;;;;15.60;4.67;;;;;;;;;;5019156;28;20311;-64
2022/02/22 09:49:16;;;;;;;21.10;3.60;;;;;;;;;;5019550;28;20212;-64
2022/02/22 09:51:46;;;;;;;15.87;3.70;;;;;;;;;;5019152;28;20228;-64
2022/02/22 09:54:15;;;;;;;19.17;4.10;;;;;;;;;;5034224;28;20208;-64
2022/02/22 09:56:44;;;;;;;9.37;3.00;;;;;;;;;;5018318;28;20228;-65
2022/02/22 09:59:12;;;;;;;18.97;4.17;;;;;;;;;;5019203;28;20232;-65
2022/02/22 10:01:41;;;;;;;13.90;4.27;;;;;;;;;;5024604;28;20204;-64
2022/02/22 10:04:10;;;;;;;12.23;2.97;;;;;;;;;;5038561;28;20219;-64
2022/02/22 10:06:40;;;;;;;12.30;4.07;;;;;;;;;;5034911;28;20239;-64
2022/02/22 10:09:09;;;;;;;14.20;3.60;;;;;;;;;;5038612;28;20255;-65
2022/02/22 10:11:45;;;;;;;12.87;3.33;;;;;;;;;;5035973;28;20237;-64
2022/02/22 10:14:23;;;;;;;16.17;3.43;;;;;;;;;;5029418;28;20254;-64
2022/02/22 10:16:53;;;;;;;14.30;3.20;;;;;;;;;;5038039;28;20331;-65
2022/02/22 10:19:25;;;;;;;14.70;3.27;;;;;;;;;;5038155;28;20259;-64
2022/02/22 10:21:56;;;;;;;16.67;3.50;;;;;;;;;;5038352;28;20199;-65
2022/02/22 10:24:27;;;;;;;17.40;3.67;;;;;;;;;;5026586;28;20223;-65
2022/02/22 10:27:01;;;;;;;14.43;3.57;;;;;;;;;;5020478;28;20639;-64
2022/02/22 10:29:31;;;;;;;17.90;4.23;;;;;;;;;;5022208;28;20199;-65
2022/02/22 10:32:09;;;;;;;15.10;3.40;;;;;;;;;;5031724;28;20202;-64
2022/02/22 10:34:38;;;;;;;17.83;4.17;;;;;;;;;;5036437;28;20215;-64
2022/02/22 10:37:08;;;;;;;20.93;5.10;;;;;;;;;;5035822;28;20219;-64
2022/02/22 10:39:36;;;;;;;19.30;3.70;;;;;;;;;;5033297;28;20224;-63
2022/02/22 10:42:04;;;;;;;8.43;3.00;;;;;;;;;;5032540;28;20195;-64
2022/02/22 10:44:36;;;;;;;17.23;3.53;;;;;;;;;;5036771;28;20204;-65
2022/02/22 10:47:10;;;;;;;15.30;3.03;;;;;;;;;;5034821;28;20634;-65
2022/02/22 10:49:38;;;;;;;14.27;3.13;;;;;;;;;;5037420;28;20227;-64
2022/02/22 10:52:11;;;;;;;10.97;3.17;;;;;;;;;;5037815;28;20218;-64
2022/02/22 10:54:41;;;;;;;16.90;3.43;;;;;;;;;;5037247;28;20204;-64
2022/02/22 10:57:10;;;;;;;18.67;3.17;;;;;;;;;;5036818;28;20220;-64
2022/02/22 10:59:39;;;;;;;14.57;4.23;;;;;;;;;;5033634;28;20306;-66
2022/02/22 11:02:07;;;;;;;17.53;3.27;;;;;;;;;;5031234;28;20203;-65
2022/02/22 11:04:36;;;;;;;14.20;3.87;;;;;;;;;;5035582;28;20203;-66
2022/02/22 11:07:05;;;;;;;11.73;3.77;;;;;;;;;;5037651;28;20238;-65
2022/02/22 11:09:44;;;;;;;10.27;3.13;;;;;;;;;;5037705;28;20217;-67
2022/02/22 11:12:16;;;;;;;17.57;3.73;;;;;;;;;;5036962;28;20243;-66
2022/02/22 11:14:44;;;;;;;16.30;4.23;;;;;;;;;;5018076;28;20204;-66
2022/02/22 11:17:16;;;;;;;10.53;3.07;;;;;;;;;;5029992;28;20703;-66
2022/02/22 11:19:46;;;;;;;10.73;3.03;;;;;;;;;;5037163;28;20223;-70
2022/02/22 11:22:17;;;;;;;14.30;2.90;;;;;;;;;;5037204;28;20211;-65
2022/02/22 11:24:47;;;;;;;12.10;3.47;;;;;;;;;;5037505;28;20211;-66
2022/02/22 11:27:26;;;;;;;16.63;3.30;;;;;;;;;;5037304;28;20214;-67
2022/02/22 11:29:56;;;;;;;11.77;3.20;;;;;;;;;;5037401;28;20264;-68
2022/02/22 11:32:38;;;;;;;14.80;3.17;;;;;;;;;;5036104;28;20208;-64
2022/02/22 11:35:10;;;;;;;13.23;3.03;;;;;;;;;;5031990;28;20204;-66
2022/02/22 11:37:38;;;;;;;14.10;3.87;;;;;;;;;;5034844;28;20196;-65
2022/02/22 11:40:09;;;;;;;14.00;3.27;;;;;;;;;;5035109;28;20710;-66
2022/02/22 11:42:39;;;;;;;16.20;3.20;;;;;;;;;;5035965;28;20204;-65
2022/02/22 11:45:08;;;;;;;11.73;2.70;;;;;;;;;;5030501;28;20247;-64
2022/02/22 11:47:37;;;;;;;7.20;2.93;;;;;;;;;;5017198;28;20247;-66
2022/02/22 11:50:11;;;;;;;9.23;3.00;;;;;;;;;;5019941;28;20628;-65
2022/02/22 11:52:43;;;;;;;14.47;3.70;;;;;;;;;;5030178;28;20606;-65
2022/02/22 11:55:13;;;;;;;15.27;3.30;;;;;;;;;;5017381;28;20212;-67
2022/02/22 11:57:46;;;;;;;11.50;3.03;;;;;;;;;;5029183;28;20735;-64
2022/02/22 12:00:14;;;;;;;11.83;3.10;;;;;;;;;;5034050;28;20715;-66
2022/02/22 12:02:46;;;;;;;10.33;3.47;;;;;;;;;;5033169;28;20561;-65
2022/02/22 12:05:25;;;;;;;11.60;3.50;;;;;;;;;;5035911;28;20219;-66
2022/02/22 12:07:58;;;;;;;16.17;3.00;;;;;;;;;;5035017;28;20202;-66
2022/02/22 12:10:30;;;;;;;12.37;4.07;;;;;;;;;;5034025;28;20235;-66
2022/02/22 12:13:05;;;;;;;11.10;3.23;;;;;;;;;;5033442;28;20638;-66
2022/02/22 12:15:33;;;;;;;11.67;2.90;;;;;;;;;;5035095;28;20227;-66
2022/02/22 12:18:01;;;;;;;11.93;2.90;;;;;;;;;;5034990;28;20207;-65
2022/02/22 12:20:30;;;;;;;12.17;3.57;;;;;;;;;;5037538;28;20203;-68
2022/02/22 12:22:59;;;;;;;9.60;3.33;;;;;;;;;;5035984;28;20219;-68
2022/02/22 12:25:28;;;;;;;15.33;3.73;;;;;;;;;;5034408;28;20248;-67
2022/02/22 12:28:00;;;;;;;20.77;4.00;;;;;;;;;;5039794;28;20238;-65
2022/02/22 12:30:32;;;;;;;14.07;3.70;;;;;;;;;;5038746;28;20249;-67
2022/02/22 12:33:00;;;;;;;22.00;2.93;;;;;;;;;;5038228;28;20231;-68
2022/02/22 12:35:32;;;;;;;10.60;2.80;;;;;;;;;;5040298;28;20277;-67
2022/02/22 12:38:15;;;;;;;13.27;3.20;;;;;;;;;;5026898;28;20208;-68
2022/02/22 12:40:45;;;;;;;13.07;3.17;;;;;;;;;;5025336;28;20285;-68
2022/02/22 12:43:43;;;;;;;13.70;3.07;;;;;;;;;;5020392;28;20212;-68
2022/02/22 12:46:11;;;;;;;15.53;3.37;;;;;;;;;;5020134;28;20259;-68
2022/02/22 12:48:39;;;;;;;14.10;3.30;;;;;;;;;;5019960;28;20208;-67
2022/02/22 12:51:09;;;;;;;16.57;4.03;;;;;;;;;;5024749;28;20208;-67
2022/02/22 12:53:37;;;;;;;12.47;3.30;;;;;;;;;;5033566;28;20258;-67
2022/02/22 12:56:07;;;;;;;15.50;3.97;;;;;;;;;;5020425;28;20315;-67
2022/02/22 12:58:35;;;;;;;13.17;3.43;;;;;;;;;;5020266;28;20208;-67
2022/02/22 13:01:12;;;;;;;15.17;3.20;;;;;;;;;;5019771;28;20240;-67
2022/02/22 13:03:44;;;;;;;20.23;3.37;;;;;;;;;;5020256;28;20216;-68
2022/02/22 13:06:12;;;;;;;12.27;2.77;;;;;;;;;;5020150;28;20228;-68
2022/02/22 13:08:40;;;;;;;13.93;3.70;;;;;;;;;;5019836;28;20280;-65
2022/02/22 13:11:10;;;;;;;15.00;3.23;;;;;;;;;;5019958;28;20268;-66
2022/02/22 13:13:38;;;;;;;14.17;3.00;;;;;;;;;;5020232;28;20287;-67
2022/02/22 13:16:10;;;;;;;13.77;3.47;;;;;;;;;;5023765;28;20251;-66
2022/02/22 13:18:38;;;;;;;17.43;4.23;;;;;;;;;;5039301;28;20207;-67
2022/02/22 13:21:12;;;;;;;14.43;3.43;;;;;;;;;;5039880;28;20246;-76
2022/02/22 13:23:40;;;;;;;12.47;3.27;;;;;;;;;;5039680;28;20206;-76
2022/02/22 13:26:10;;;;;;;15.97;3.70;;;;;;;;;;5026032;28;20231;-67
2022/02/22 13:28:39;;;;;;;17.73;3.80;;;;;;;;;;5034249;28;20242;-66
2022/02/22 13:31:15;;;;;;;10.30;3.20;;;;;;;;;;5031472;28;20196;-67
2022/02/22 13:33:43;;;;;;;9.13;2.40;;;;;;;;;;5029852;28;20260;-65
2022/02/22 13:36:14;;;;;;;14.83;3.00;;;;;;;;;;5027077;28;20243;-64
2022/02/22 13:38:44;;;;;;;17.70;3.17;;;;;;;;;;5019298;28;20208;-66
2022/02/22 13:41:15;;;;;;;10.07;2.87;;;;;;;;;;5019417;28;20737;-68
2022/02/22 13:43:44;;;;;;;9.63;2.40;;;;;;;;;;5022843;28;20238;-68
2022/02/22 13:46:12;;;;;;;15.77;3.53;;;;;;;;;;5037199;28;20262;-69
2022/02/22 13:48:39;;;;;;;11.63;2.97;;;;;;;;;;5036260;28;20231;-70
2022/02/22 13:51:08;;;;;;;8.03;3.10;;;;;;;;;;5029363;28;20232;-68
2022/02/22 13:53:37;;;;;;;12.70;3.57;;;;;;;;;;5033024;28;20199;-68
2022/02/22 13:56:07;;;;;;;13.17;2.93;;;;;;;;;;5028141;28;20235;-69
2022/02/22 13:58:37;;;;;;;10.50;3.10;;;;;;;;;;5018948;28;20599;-67
2022/02/22 14:01:08;;;;;;;10.37;3.00;;;;;;;;;;5018680;28;20599;-67
2022/02/22 14:03:36;;;;;;;9.57;3.23;;;;;;;;;;5018554;28;20208;-68
2022/02/22 14:06:04;;;;;;;22.40;3.80;;;;;;;;;;5019177;28;20323;-68
2022/02/22 14:08:33;;;;;;;11.00;2.93;;;;;;;;;;5019103;28;20235;-67
2022/02/22 14:11:01;;;;;;;9.67;3.27;;;;;;;;;;5018925;28;20232;-67
2022/02/22 14:13:35;;;;;;;12.23;2.83;;;;;;;;;;5018541;28;20204;-67
2022/02/22 14:16:24;;;;;;;15.67;3.30;;;;;;;;;;5030434;28;20227;-66
2022/02/22 14:18:52;;;;;;;11.87;3.10;;;;;;;;;;5038278;28;20207;-66
2022/02/22 14:21:20;;;;;;;13.23;2.53;;;;;;;;;;5038364;28;20314;-66
2022/02/22 14:23:49;;;;;;;13.93;3.83;;;;;;;;;;5038356;28;20663;-66
2022/02/22 14:26:17;;;;;;;11.73;3.37;;;;;;;;;;5038378;28;20253;-68
2022/02/22 14:28:45;;;;;;;18.13;3.47;;;;;;;;;;5038169;28;20653;-68
2022/02/22 14:31:13;;;;;;;15.87;3.53;;;;;;;;;;5038181;28;20299;-68
2022/02/22 14:33:43;;;;;;;12.33;3.77;;;;;;;;;;5038284;28;20207;-66
2022/02/22 14:36:11;;;;;;;14.13;3.33;;;;;;;;;;5038029;28;20223;-66
2022/02/22 14:38:40;;;;;;;11.17;2.67;;;;;;;;;;5029615;28;20644;-67
2022/02/22 14:41:08;;;;;;;9.53;2.70;;;;;;;;;;5018289;28;20270;-66
2022/02/22 14:43:37;;;;;;;19.10;3.73;;;;;;;;;;5018036;28;20232;-68